LGPZ/PVK METAR and TAF weather

Enter ICAO airport designator
Station Type Date Time Source
LGPZ METAR 2018/12/17 01:50 UTC NOAA

LGPZ 170150Z 00000KT 9999 FEW025 07/04 Q1018


Station Type Date Time Source
LGPZ Decoded METAR 2018/12/17 01:50 UTC NOAA

Aktion Airport , Greece (LGPZ) 38-37N 020-46E 4M
Dec 16, 2018 - 08:50 PM EST / 2018.12.17 0150 UTC
Wind: Calm:0
Visibility: greater than 7 mile(s):0
Sky conditions: mostly clear
Temperature: 44 F (7 C)
Dew Point: 39 F (4 C)
Relative Humidity: 81%
Pressure (altimeter): 30.06 in. Hg (1018 hPa)
ob: LGPZ 170150Z 00000KT 9999 FEW025 07/04 Q1018
cycle: 2

Station Type Date Time Source
LGPZ TAF 2018/12/16 18:12 UTC NOAA

TAF TAF LGPZ 161700Z 1618/1718 VRB05KT 9999 FEW025 SCT070
BECMG 1709/1711 08013KT PROB30
TEMPO 1712/1718 5000 RA FEW016TCU SCT025 BKN070


Example: see airport list